Berlin, NH (03570)

10:37 AM EDT on September 02, 2015 (GMT -0400)
Norwegian village | | Change Station
CLOSE
Current Station
Personal Weather Station
Location: Berlin, NH
Elevation: 1099 ft
Nearby Weather Stations

Elev 1099 ft 44.48 °N, 71.17 °W | Updated 10 seconds ago

Clear
Clear
76.5 °F
Feels Like 78 °F
N
0.0
Wind Variable Wind from NE
Gusts 1.6 mph

Today
High -- | Low -- °F
--% Chance of Precip.
Yesterday
High -- | Low -- °F
Precip. -- in
6:08 AM 7:19 PM
Waning Gibbous, 80% visible
Pressure 30.02 in
Visibility 10.0 miles
Clouds Clear
Heat Index 78 °F
Dew Point 63 °F
Humidity 63%
Rainfall 0.00 in
Snow Depth Not available.
UV 5 out of 12
Pollen 8.30 out of 12
Air Quality Not available.
Flu Activity Not available.
METAR KBML 021352Z AUTO 00000KT 10SM CLR 21/15 A3002 RMK AO2 SLP165 T02110150
Pressure 30.02 in
Visibility 10.0 miles
Clouds Clear
Heat Index 78 °F
Dew Point 63 °F
Humidity 63%
Rainfall 0.00 in
Snow Depth Not available.
UV 5 out of 12
Pollen 8.30 out of 12
Air Quality Not available.
Flu Activity Not available.
METAR KBML 021352Z AUTO 00000KT 10SM CLR 21/15 A3002 RMK AO2 SLP165 T02110150

10-Day Weather Forecast

×

Almanac

Astronomy

Sep. 02, 2015 Rise Set
Actual Time
Civil Twilight
Nautical Twilight
Astronomical Twilight
Moon
Length of Visible Light
Length of Day
Tomorrow will be .
, % of the Moon is Illuminated

Today's Extremes

State Highs State Lows

Community

WunderPhotos

Upload Photos

1,851,763 photos uploaded!

WunderBlogs® & News

Nearby

Air Quality

  Air Quality AQ Index Pollutant
Not available.

Snow Depth

Station Depth Elevation

Earthquake Activity

City Distance Mag. Time & Date
Minimum magnitude displayed is 2.5.

Coastal Water Temperatures

Place Temperature

Stations

Nearby Weather Stations

Station Location Temp. Windchill Dew Point Humidity Wind Precip. Elev Updated Type